sensor_id;sensor_type;location;lat;lon;timestamp;pressure;altitude;pressure_sealevel;temperature;humidity
67501;BME280;54349;52.528;19.760;2024-03-02T00:02:06;100059.05;;;26.17;36.18
67501;BME280;54349;52.528;19.760;2024-03-02T00:04:37;100057.54;;;26.17;36.15
67501;BME280;54349;52.528;19.760;2024-03-02T00:07:07;100061.56;;;26.18;35.99
67501;BME280;54349;52.528;19.760;2024-03-02T00:09:36;100058.74;;;26.19;36.06
67501;BME280;54349;52.528;19.760;2024-03-02T00:12:06;100057.11;;;26.20;35.98
67501;BME280;54349;52.528;19.760;2024-03-02T00:14:35;100050.49;;;26.21;35.77
67501;BME280;54349;52.528;19.760;2024-03-02T00:17:04;100055.86;;;26.22;35.92
67501;BME280;54349;52.528;19.760;2024-03-02T00:19:33;100053.27;;;26.23;35.78
67501;BME280;54349;52.528;19.760;2024-03-02T00:22:03;100051.58;;;26.24;35.72
67501;BME280;54349;52.528;19.760;2024-03-02T00:24:34;100047.23;;;26.25;35.53
67501;BME280;54349;52.528;19.760;2024-03-02T00:27:05;100043.23;;;26.26;35.48
67501;BME280;54349;52.528;19.760;2024-03-02T00:29:35;100041.86;;;26.27;35.45
67501;BME280;54349;52.528;19.760;2024-03-02T00:32:13;100042.92;;;26.28;35.42
67501;BME280;54349;52.528;19.760;2024-03-02T00:34:45;100040.11;;;26.29;35.37
67501;BME280;54349;52.528;19.760;2024-03-02T00:37:14;100038.41;;;26.30;35.40
67501;BME280;54349;52.528;19.760;2024-03-02T00:39:43;100039.55;;;26.31;35.32
67501;BME280;54349;52.528;19.760;2024-03-02T00:42:11;100041.08;;;26.32;35.43
67501;BME280;54349;52.528;19.760;2024-03-02T00:44:40;100037.85;;;26.32;35.34
67501;BME280;54349;52.528;19.760;2024-03-02T00:47:08;100040.05;;;26.33;35.37
67501;BME280;54349;52.528;19.760;2024-03-02T00:49:39;100039.02;;;26.33;35.23
67501;BME280;54349;52.528;19.760;2024-03-02T00:52:08;100038.98;;;26.34;35.19
67501;BME280;54349;52.528;19.760;2024-03-02T00:54:39;100033.42;;;26.34;35.12
67501;BME280;54349;52.528;19.760;2024-03-02T00:57:10;100038.46;;;26.33;34.96
67501;BME280;54349;52.528;19.760;2024-03-02T00:59:41;100039.96;;;26.33;34.97
67501;BME280;54349;52.528;19.760;2024-03-02T01:02:09;100044.30;;;26.34;34.78
67501;BME280;54349;52.528;19.760;2024-03-02T01:04:40;100040.46;;;26.34;34.70
67501;BME280;54349;52.528;19.760;2024-03-02T01:07:08;100029.70;;;26.33;34.58
67501;BME280;54349;52.528;19.760;2024-03-02T01:09:38;100026.61;;;26.31;34.61
67501;BME280;54349;52.528;19.760;2024-03-02T01:12:06;100024.80;;;26.30;34.55
67501;BME280;54349;52.528;19.760;2024-03-02T01:14:36;100018.48;;;26.27;34.46
67501;BME280;54349;52.528;19.760;2024-03-02T01:17:05;100016.39;;;26.25;34.51
67501;BME280;54349;52.528;19.760;2024-03-02T01:19:34;100017.97;;;26.23;34.49
67501;BME280;54349;52.528;19.760;2024-03-02T01:22:02;100018.40;;;26.20;34.46
67501;BME280;54349;52.528;19.760;2024-03-02T01:24:33;100015.52;;;26.17;34.37
67501;BME280;54349;52.528;19.760;2024-03-02T01:27:02;100009.86;;;26.15;34.27
67501;BME280;54349;52.528;19.760;2024-03-02T01:29:32;100002.42;;;26.13;34.26
67501;BME280;54349;52.528;19.760;2024-03-02T01:32:00;100001.46;;;26.11;34.20
67501;BME280;54349;52.528;19.760;2024-03-02T01:34:30;99998.65;;;26.08;34.21
67501;BME280;54349;52.528;19.760;2024-03-02T01:36:59;99992.90;;;26.06;34.25
67501;BME280;54349;52.528;19.760;2024-03-02T01:39:30;99998.13;;;26.04;34.20
67501;BME280;54349;52.528;19.760;2024-03-02T01:41:58;100001.39;;;26.01;34.02
67501;BME280;54349;52.528;19.760;2024-03-02T01:44:28;100001.96;;;25.99;34.05
67501;BME280;54349;52.528;19.760;2024-03-02T01:46:56;100003.52;;;25.96;34.10
67501;BME280;54349;52.528;19.760;2024-03-02T01:49:26;100004.84;;;25.94;34.20
67501;BME280;54349;52.528;19.760;2024-03-02T01:51:54;100003.66;;;25.91;34.16
67501;BME280;54349;52.528;19.760;2024-03-02T01:54:25;100004.36;;;25.87;34.19
67501;BME280;54349;52.528;19.760;2024-03-02T01:56:53;100002.08;;;25.84;33.94
67501;BME280;54349;52.528;19.760;2024-03-02T01:59:23;99996.89;;;25.80;33.85
67501;BME280;54349;52.528;19.760;2024-03-02T02:01:51;100000.51;;;25.76;33.83
67501;BME280;54349;52.528;19.760;2024-03-02T02:04:22;99999.98;;;25.71;33.85
67501;BME280;54349;52.528;19.760;2024-03-02T02:06:55;99997.96;;;25.67;33.67
67501;BME280;54349;52.528;19.760;2024-03-02T02:09:25;99996.55;;;25.61;33.68
67501;BME280;54349;52.528;19.760;2024-03-02T02:11:53;99996.91;;;25.56;33.67
67501;BME280;54349;52.528;19.760;2024-03-02T02:14:23;99994.73;;;25.52;33.90
67501;BME280;54349;52.528;19.760;2024-03-02T02:16:51;99999.58;;;25.49;33.79
67501;BME280;54349;52.528;19.760;2024-03-02T02:19:22;99998.40;;;25.46;33.80
67501;BME280;54349;52.528;19.760;2024-03-02T02:21:51;99999.51;;;25.42;33.67
67501;BME280;54349;52.528;19.760;2024-03-02T02:24:21;100002.34;;;25.39;33.56
67501;BME280;54349;52.528;19.760;2024-03-02T02:26:49;100000.63;;;25.34;33.54
67501;BME280;54349;52.528;19.760;2024-03-02T02:29:19;99997.06;;;25.31;33.61
67501;BME280;54349;52.528;19.760;2024-03-02T02:31:47;99995.27;;;25.28;33.80
67501;BME280;54349;52.528;19.760;2024-03-02T02:34:17;99992.65;;;25.25;33.78
67501;BME280;54349;52.528;19.760;2024-03-02T02:36:46;99992.96;;;25.22;33.71
67501;BME280;54349;52.528;19.760;2024-03-02T02:39:17;99991.09;;;25.19;33.73
67501;BME280;54349;52.528;19.760;2024-03-02T02:41:48;99990.80;;;25.16;33.54
67501;BME280;54349;52.528;19.760;2024-03-02T02:44:17;99990.27;;;25.12;33.61
67501;BME280;54349;52.528;19.760;2024-03-02T02:46:46;99991.73;;;25.09;33.58
67501;BME280;54349;52.528;19.760;2024-03-02T02:49:16;99991.86;;;25.07;33.42
67501;BME280;54349;52.528;19.760;2024-03-02T02:51:45;99989.77;;;25.05;33.35
67501;BME280;54349;52.528;19.760;2024-03-02T02:54:15;99992.77;;;25.02;33.42
67501;BME280;54349;52.528;19.760;2024-03-02T02:56:44;99986.84;;;24.99;33.34
67501;BME280;54349;52.528;19.760;2024-03-02T02:59:14;99989.27;;;24.95;33.29
67501;BME280;54349;52.528;19.760;2024-03-02T03:01:42;99987.04;;;24.92;33.37
67501;BME280;54349;52.528;19.760;2024-03-02T03:04:13;99988.41;;;24.89;33.34
67501;BME280;54349;52.528;19.760;2024-03-02T03:06:41;99989.47;;;24.86;33.46
67501;BME280;54349;52.528;19.760;2024-03-02T03:09:11;99991.95;;;24.83;33.25
67501;BME280;54349;52.528;19.760;2024-03-02T03:11:39;99991.34;;;24.81;33.42
67501;BME280;54349;52.528;19.760;2024-03-02T03:14:10;99986.89;;;24.77;33.29
67501;BME280;54349;52.528;19.760;2024-03-02T03:16:38;99982.38;;;24.74;33.22
67501;BME280;54349;52.528;19.760;2024-03-02T03:19:08;99984.09;;;24.70;33.23
67501;BME280;54349;52.528;19.760;2024-03-02T03:21:36;99982.64;;;24.67;33.39
67501;BME280;54349;52.528;19.760;2024-03-02T03:24:07;99984.06;;;24.63;33.28
67501;BME280;54349;52.528;19.760;2024-03-02T03:26:36;99978.45;;;24.59;33.37
67501;BME280;54349;52.528;19.760;2024-03-02T03:29:06;99974.50;;;24.56;33.29
67501;BME280;54349;52.528;19.760;2024-03-02T03:31:34;99972.30;;;24.53;33.21
67501;BME280;54349;52.528;19.760;2024-03-02T03:34:04;99966.98;;;24.50;33.20
67501;BME280;54349;52.528;19.760;2024-03-02T03:36:32;99964.11;;;24.48;33.24
67501;BME280;54349;52.528;19.760;2024-03-02T03:39:03;99967.69;;;24.45;33.40
67501;BME280;54349;52.528;19.760;2024-03-02T03:41:32;99966.27;;;24.42;33.23
67501;BME280;54349;52.528;19.760;2024-03-02T03:44:02;99965.25;;;24.40;33.23
67501;BME280;54349;52.528;19.760;2024-03-02T03:46:31;99974.05;;;24.36;33.29
67501;BME280;54349;52.528;19.760;2024-03-02T03:49:01;99972.56;;;24.34;33.15
67501;BME280;54349;52.528;19.760;2024-03-02T03:51:30;99970.53;;;24.31;33.24
67501;BME280;54349;52.528;19.760;2024-03-02T03:54:00;99972.14;;;24.29;33.24
67501;BME280;54349;52.528;19.760;2024-03-02T03:56:28;99972.16;;;24.26;33.17
67501;BME280;54349;52.528;19.760;2024-03-02T03:58:59;99970.41;;;24.23;33.33
67501;BME280;54349;52.528;19.760;2024-03-02T04:01:28;99969.92;;;24.20;33.03
67501;BME280;54349;52.528;19.760;2024-03-02T04:03:58;99968.45;;;24.17;33.13
67501;BME280;54349;52.528;19.760;2024-03-02T04:06:28;99960.14;;;24.14;33.21
67501;BME280;54349;52.528;19.760;2024-03-02T04:08:58;99960.08;;;24.11;33.13
67501;BME280;54349;52.528;19.760;2024-03-02T04:11:26;99963.67;;;24.09;33.10
67501;BME280;54349;52.528;19.760;2024-03-02T04:13:57;99971.38;;;24.07;33.11
67501;BME280;54349;52.528;19.760;2024-03-02T04:16:26;99972.71;;;24.05;33.11
67501;BME280;54349;52.528;19.760;2024-03-02T04:18:56;99968.88;;;24.03;32.92
67501;BME280;54349;52.528;19.760;2024-03-02T04:21:25;99969.33;;;24.01;32.88
67501;BME280;54349;52.528;19.760;2024-03-02T04:23:55;99968.83;;;23.98;33.05
67501;BME280;54349;52.528;19.760;2024-03-02T04:26:27;99972.28;;;23.95;32.95
67501;BME280;54349;52.528;19.760;2024-03-02T04:28:57;99968.36;;;23.92;33.00
67501;BME280;54349;52.528;19.760;2024-03-02T04:31:25;99966.58;;;23.90;33.08
67501;BME280;54349;52.528;19.760;2024-03-02T04:33:55;99965.37;;;23.88;33.02
67501;BME280;54349;52.528;19.760;2024-03-02T04:36:24;99968.48;;;23.86;32.88
67501;BME280;54349;52.528;19.760;2024-03-02T04:38:53;99968.30;;;23.84;32.95
67501;BME280;54349;52.528;19.760;2024-03-02T04:41:22;99975.08;;;23.83;33.03
67501;BME280;54349;52.528;19.760;2024-03-02T04:43:53;99979.45;;;23.83;33.15
67501;BME280;54349;52.528;19.760;2024-03-02T04:46:24;99984.77;;;23.84;33.29
67501;BME280;54349;52.528;19.760;2024-03-02T04:48:54;99981.66;;;23.85;33.31
67501;BME280;54349;52.528;19.760;2024-03-02T04:51:25;99984.15;;;23.86;33.13
67501;BME280;54349;52.528;19.760;2024-03-02T04:53:55;99979.70;;;23.87;33.24
67501;BME280;54349;52.528;19.760;2024-03-02T04:56:24;99980.39;;;23.88;33.05
67501;BME280;54349;52.528;19.760;2024-03-02T04:59:12;99981.76;;;23.88;33.02
67501;BME280;54349;52.528;19.760;2024-03-02T05:01:40;99985.65;;;23.90;32.94
67501;BME280;54349;52.528;19.760;2024-03-02T05:04:12;99982.76;;;23.91;33.00
67501;BME280;54349;52.528;19.760;2024-03-02T05:09:28;99987.51;;;23.93;33.10
67501;BME280;54349;52.528;19.760;2024-03-02T05:11:57;99989.18;;;23.95;33.01
67501;BME280;54349;52.528;19.760;2024-03-02T05:14:36;99991.56;;;23.98;33.01
67501;BME280;54349;52.528;19.760;2024-03-02T05:17:04;99991.61;;;23.98;32.83
67501;BME280;54349;52.528;19.760;2024-03-02T05:19:34;99996.50;;;23.98;32.81
67501;BME280;54349;52.528;19.760;2024-03-02T05:22:02;100000.09;;;23.98;32.78
67501;BME280;54349;52.528;19.760;2024-03-02T05:24:33;100005.64;;;23.98;32.78
67501;BME280;54349;52.528;19.760;2024-03-02T05:27:02;100005.80;;;23.98;32.87
67501;BME280;54349;52.528;19.760;2024-03-02T05:29:32;100006.02;;;23.98;32.89
67501;BME280;54349;52.528;19.760;2024-03-02T05:32:00;100008.97;;;23.98;32.79
67501;BME280;54349;52.528;19.760;2024-03-02T05:34:31;100014.27;;;23.98;32.84
67501;BME280;54349;52.528;19.760;2024-03-02T05:37:01;100013.91;;;23.98;32.92
67501;BME280;54349;52.528;19.760;2024-03-02T05:39:30;100020.27;;;23.96;32.80
67501;BME280;54349;52.528;19.760;2024-03-02T05:41:59;100020.41;;;23.96;32.61
67501;BME280;54349;52.528;19.760;2024-03-02T05:44:30;100023.54;;;23.94;32.65
67501;BME280;54349;52.528;19.760;2024-03-02T05:46:58;100027.70;;;23.91;32.64
67501;BME280;54349;52.528;19.760;2024-03-02T05:49:28;100024.13;;;23.90;32.71
67501;BME280;54349;52.528;19.760;2024-03-02T05:51:57;100031.36;;;23.89;32.76
67501;BME280;54349;52.528;19.760;2024-03-02T05:54:27;100029.95;;;23.88;32.67
67501;BME280;54349;52.528;19.760;2024-03-02T05:56:55;100028.59;;;23.86;32.60
67501;BME280;54349;52.528;19.760;2024-03-02T05:59:25;100027.02;;;23.85;32.63
67501;BME280;54349;52.528;19.760;2024-03-02T06:01:53;100030.60;;;23.84;32.63
67501;BME280;54349;52.528;19.760;2024-03-02T06:04:23;100030.36;;;23.82;32.57
67501;BME280;54349;52.528;19.760;2024-03-02T06:06:52;100032.38;;;23.80;32.63
67501;BME280;54349;52.528;19.760;2024-03-02T06:09:23;100031.04;;;23.79;32.67
67501;BME280;54349;52.528;19.760;2024-03-02T06:11:52;100033.27;;;23.78;32.61
67501;BME280;54349;52.528;19.760;2024-03-02T06:14:22;100033.10;;;23.76;32.51
67501;BME280;54349;52.528;19.760;2024-03-02T06:16:50;100033.48;;;23.74;32.65
67501;BME280;54349;52.528;19.760;2024-03-02T06:19:18;100030.02;;;23.71;32.68
67501;BME280;54349;52.528;19.760;2024-03-02T06:21:48;100034.94;;;23.70;32.75
67501;BME280;54349;52.528;19.760;2024-03-02T06:24:16;100030.86;;;23.69;32.63
67501;BME280;54349;52.528;19.760;2024-03-02T06:26:46;100028.89;;;23.67;32.66
67501;BME280;54349;52.528;19.760;2024-03-02T06:29:14;100028.06;;;23.65;32.62
67501;BME280;54349;52.528;19.760;2024-03-02T06:31:45;100033.61;;;23.64;32.52
67501;BME280;54349;52.528;19.760;2024-03-02T06:34:13;100030.56;;;23.62;32.69
67501;BME280;54349;52.528;19.760;2024-03-02T06:36:41;100033.41;;;23.60;32.86
67501;BME280;54349;52.528;19.760;2024-03-02T06:39:11;100030.05;;;23.58;32.71
67501;BME280;54349;52.528;19.760;2024-03-02T06:41:40;100031.10;;;23.57;32.89
67501;BME280;54349;52.528;19.760;2024-03-02T06:44:10;100034.43;;;23.57;32.91
67501;BME280;54349;52.528;19.760;2024-03-02T06:46:38;100035.47;;;23.58;33.03
67501;BME280;54349;52.528;19.760;2024-03-02T06:49:10;100037.46;;;23.58;32.99
67501;BME280;54349;52.528;19.760;2024-03-02T06:51:41;100038.33;;;23.59;33.01
67501;BME280;54349;52.528;19.760;2024-03-02T06:54:11;100034.95;;;23.59;33.18
67501;BME280;54349;52.528;19.760;2024-03-02T06:56:39;100033.98;;;23.60;33.24
67501;BME280;54349;52.528;19.760;2024-03-02T06:59:10;100034.80;;;23.61;33.06
67501;BME280;54349;52.528;19.760;2024-03-02T07:01:38;100038.53;;;23.60;33.14
67501;BME280;54349;52.528;19.760;2024-03-02T07:04:08;100043.52;;;23.60;33.26
67501;BME280;54349;52.528;19.760;2024-03-02T07:06:36;100048.83;;;23.60;33.32
67501;BME280;54349;52.528;19.760;2024-03-02T07:09:06;100046.42;;;23.61;33.34
67501;BME280;54349;52.528;19.760;2024-03-02T07:11:39;100044.54;;;23.61;33.25
67501;BME280;54349;52.528;19.760;2024-03-02T07:14:08;100043.33;;;23.61;33.24
67501;BME280;54349;52.528;19.760;2024-03-02T07:16:37;100050.96;;;23.61;33.25
67501;BME280;54349;52.528;19.760;2024-03-02T07:19:07;100057.04;;;23.63;33.20
67501;BME280;54349;52.528;19.760;2024-03-02T07:21:36;100057.30;;;23.63;33.29
67501;BME280;54349;52.528;19.760;2024-03-02T07:24:07;100063.03;;;23.64;33.19
67501;BME280;54349;52.528;19.760;2024-03-02T07:26:37;100066.64;;;23.64;33.26
67501;BME280;54349;52.528;19.760;2024-03-02T07:29:09;100066.85;;;23.64;33.26
67501;BME280;54349;52.528;19.760;2024-03-02T07:31:38;100073.11;;;23.64;33.18
67501;BME280;54349;52.528;19.760;2024-03-02T07:34:09;100077.18;;;23.63;33.06
67501;BME280;54349;52.528;19.760;2024-03-02T07:36:37;100076.73;;;23.64;33.05
67501;BME280;54349;52.528;19.760;2024-03-02T07:39:08;100077.06;;;23.64;33.05
67501;BME280;54349;52.528;19.760;2024-03-02T07:41:36;100083.48;;;23.64;32.95
67501;BME280;54349;52.528;19.760;2024-03-02T07:44:04;100079.38;;;23.64;32.90
67501;BME280;54349;52.528;19.760;2024-03-02T07:46:34;100082.31;;;23.64;32.79
67501;BME280;54349;52.528;19.760;2024-03-02T07:49:02;100086.25;;;23.64;32.90
67501;BME280;54349;52.528;19.760;2024-03-02T07:51:32;100091.46;;;23.64;32.84
67501;BME280;54349;52.528;19.760;2024-03-02T07:54:00;100093.57;;;23.63;32.82
67501;BME280;54349;52.528;19.760;2024-03-02T07:56:31;100093.64;;;23.63;32.87
67501;BME280;54349;52.528;19.760;2024-03-02T07:59:00;100097.75;;;23.63;32.96
67501;BME280;54349;52.528;19.760;2024-03-02T08:01:31;100101.30;;;23.63;33.03
67501;BME280;54349;52.528;19.760;2024-03-02T08:04:01;100103.23;;;23.63;32.94
67501;BME280;54349;52.528;19.760;2024-03-02T08:06:33;100102.24;;;23.63;32.90
67501;BME280;54349;52.528;19.760;2024-03-02T08:09:01;100103.96;;;23.62;32.95
67501;BME280;54349;52.528;19.760;2024-03-02T08:11:31;100101.36;;;23.63;32.98
67501;BME280;54349;52.528;19.760;2024-03-02T08:14:00;100099.01;;;23.63;32.99
67501;BME280;54349;52.528;19.760;2024-03-02T08:16:30;100099.90;;;23.63;33.03
67501;BME280;54349;52.528;19.760;2024-03-02T08:18:58;100104.66;;;23.63;33.23
67501;BME280;54349;52.528;19.760;2024-03-02T08:21:29;100102.34;;;23.63;33.27
67501;BME280;54349;52.528;19.760;2024-03-02T08:23:58;100103.41;;;23.64;33.25
67501;BME280;54349;52.528;19.760;2024-03-02T08:26:28;100104.88;;;23.63;33.35
67501;BME280;54349;52.528;19.760;2024-03-02T08:28:59;100100.88;;;23.64;33.31
67501;BME280;54349;52.528;19.760;2024-03-02T08:31:31;100106.01;;;23.65;33.17
67501;BME280;54349;52.528;19.760;2024-03-02T08:34:00;100105.39;;;23.65;33.34
67501;BME280;54349;52.528;19.760;2024-03-02T08:36:29;100108.00;;;23.65;33.24
67501;BME280;54349;52.528;19.760;2024-03-02T08:39:00;100109.14;;;23.66;33.19
67501;BME280;54349;52.528;19.760;2024-03-02T08:41:29;100109.15;;;23.66;33.28
67501;BME280;54349;52.528;19.760;2024-03-02T08:43:57;100104.00;;;23.66;33.23
67501;BME280;54349;52.528;19.760;2024-03-02T08:46:27;100105.60;;;23.66;33.27
67501;BME280;54349;52.528;19.760;2024-03-02T08:48:56;100107.42;;;23.66;33.19
67501;BME280;54349;52.528;19.760;2024-03-02T08:51:27;100107.13;;;23.67;33.25
67501;BME280;54349;52.528;19.760;2024-03-02T08:53:59;100115.87;;;23.67;33.39
67501;BME280;54349;52.528;19.760;2024-03-02T08:59:15;100117.58;;;23.69;33.20
67501;BME280;54349;52.528;19.760;2024-03-02T09:01:45;100119.51;;;23.69;33.25
67501;BME280;54349;52.528;19.760;2024-03-02T09:04:20;100119.22;;;23.70;33.33
67501;BME280;54349;52.528;19.760;2024-03-02T09:06:56;100116.94;;;23.70;33.22
67501;BME280;54349;52.528;19.760;2024-03-02T09:09:32;100116.77;;;23.71;33.25
67501;BME280;54349;52.528;19.760;2024-03-02T09:12:06;100112.11;;;23.71;33.25
67501;BME280;54349;52.528;19.760;2024-03-02T09:14:41;100114.41;;;23.72;33.24
67501;BME280;54349;52.528;19.760;2024-03-02T09:17:11;100118.40;;;23.72;33.27
67501;BME280;54349;52.528;19.760;2024-03-02T09:19:43;100110.25;;;23.72;33.41
67501;BME280;54349;52.528;19.760;2024-03-02T09:22:22;100110.02;;;23.74;33.23
67501;BME280;54349;52.528;19.760;2024-03-02T09:25:05;100112.02;;;23.73;33.11
67501;BME280;54349;52.528;19.760;2024-03-02T09:27:42;100111.42;;;23.72;33.30
67501;BME280;54349;52.528;19.760;2024-03-02T09:30:12;100113.36;;;23.73;33.15
67501;BME280;54349;52.528;19.760;2024-03-02T09:32:49;100111.81;;;23.72;33.10
67501;BME280;54349;52.528;19.760;2024-03-02T09:35:58;100110.02;;;23.72;33.01
67501;BME280;54349;52.528;19.760;2024-03-02T09:39:11;100111.85;;;23.73;32.96
67501;BME280;54349;52.528;19.760;2024-03-02T09:41:55;100110.14;;;23.73;33.11
67501;BME280;54349;52.528;19.760;2024-03-02T09:44:30;100113.73;;;23.73;32.90
67501;BME280;54349;52.528;19.760;2024-03-02T09:47:11;100109.32;;;23.72;32.91
67501;BME280;54349;52.528;19.760;2024-03-02T09:49:49;100111.89;;;23.72;32.84
67501;BME280;54349;52.528;19.760;2024-03-02T09:52:33;100113.22;;;23.71;32.82
67501;BME280;54349;52.528;19.760;2024-03-02T09:55:36;100116.87;;;23.72;32.89
67501;BME280;54349;52.528;19.760;2024-03-02T09:59:02;100110.52;;;23.71;32.91
67501;BME280;54349;52.528;19.760;2024-03-02T10:03:00;100115.40;;;23.78;32.87
67501;BME280;54349;52.528;19.760;2024-03-02T10:06:24;100122.23;;;23.77;32.84
67501;BME280;54349;52.528;19.760;2024-03-02T10:09:13;100115.55;;;23.79;32.84
67501;BME280;54349;52.528;19.760;2024-03-02T10:12:05;100110.45;;;23.79;32.72
67501;BME280;54349;52.528;19.760;2024-03-02T10:15:10;100108.73;;;23.79;32.73
67501;BME280;54349;52.528;19.760;2024-03-02T10:17:54;100112.80;;;23.80;32.70
67501;BME280;54349;52.528;19.760;2024-03-02T10:20:35;100112.02;;;23.80;32.65
67501;BME280;54349;52.528;19.760;2024-03-02T10:23:14;100106.23;;;23.79;32.67
67501;BME280;54349;52.528;19.760;2024-03-02T10:25:53;100106.86;;;23.78;32.79
67501;BME280;54349;52.528;19.760;2024-03-02T10:28:28;100106.43;;;23.78;32.74
67501;BME280;54349;52.528;19.760;2024-03-02T10:31:13;100106.83;;;23.79;32.65
67501;BME280;54349;52.528;19.760;2024-03-02T10:33:43;100104.45;;;23.79;32.63
67501;BME280;54349;52.528;19.760;2024-03-02T10:36:15;100105.05;;;23.80;32.95
67501;BME280;54349;52.528;19.760;2024-03-02T10:39:05;100100.69;;;23.81;33.70
67501;BME280;54349;52.528;19.760;2024-03-02T10:42:32;100104.47;;;23.84;35.41
67501;BME280;54349;52.528;19.760;2024-03-02T10:45:10;100108.23;;;23.87;36.38
67501;BME280;54349;52.528;19.760;2024-03-02T10:48:58;100112.88;;;23.91;37.34
67501;BME280;54349;52.528;19.760;2024-03-02T10:51:39;100106.48;;;23.96;37.48
67501;BME280;54349;52.528;19.760;2024-03-02T10:54:22;100106.73;;;23.99;37.72
67501;BME280;54349;52.528;19.760;2024-03-02T10:57:04;100098.99;;;24.03;38.20
67501;BME280;54349;52.528;19.760;2024-03-02T10:59:54;100095.98;;;24.05;38.56
67501;BME280;54349;52.528;19.760;2024-03-02T11:02:46;100096.96;;;24.09;38.98
67501;BME280;54349;52.528;19.760;2024-03-02T11:05:31;100094.11;;;24.12;39.09
67501;BME280;54349;52.528;19.760;2024-03-02T11:08:12;100093.16;;;24.15;39.50
67501;BME280;54349;52.528;19.760;2024-03-02T11:11:07;100086.73;;;24.17;39.47
67501;BME280;54349;52.528;19.760;2024-03-02T11:13:49;100084.90;;;24.20;39.75
67501;BME280;54349;52.528;19.760;2024-03-02T11:16:37;100081.72;;;24.23;39.87
67501;BME280;54349;52.528;19.760;2024-03-02T11:19:12;100080.67;;;24.24;40.24
67501;BME280;54349;52.528;19.760;2024-03-02T11:21:46;100076.63;;;24.27;40.33
67501;BME280;54349;52.528;19.760;2024-03-02T11:24:30;100075.48;;;24.28;40.47
67501;BME280;54349;52.528;19.760;2024-03-02T11:27:10;100078.38;;;24.30;40.23
67501;BME280;54349;52.528;19.760;2024-03-02T11:29:47;100075.45;;;24.32;40.33
67501;BME280;54349;52.528;19.760;2024-03-02T11:32:28;100070.69;;;24.33;40.23
67501;BME280;54349;52.528;19.760;2024-03-02T11:35:02;100067.45;;;24.35;40.52
67501;BME280;54349;52.528;19.760;2024-03-02T11:37:36;100072.83;;;24.36;40.39
67501;BME280;54349;52.528;19.760;2024-03-02T11:40:10;100072.33;;;24.37;40.36
67501;BME280;54349;52.528;19.760;2024-03-02T11:42:45;100071.45;;;24.38;40.34
67501;BME280;54349;52.528;19.760;2024-03-02T11:45:27;100070.54;;;24.39;40.19
67501;BME280;54349;52.528;19.760;2024-03-02T11:48:00;100068.81;;;24.39;40.31
67501;BME280;54349;52.528;19.760;2024-03-02T11:50:42;100067.59;;;24.40;40.15
67501;BME280;54349;52.528;19.760;2024-03-02T11:53:16;100068.02;;;24.41;40.08
67501;BME280;54349;52.528;19.760;2024-03-02T11:55:47;100071.50;;;24.41;40.06
67501;BME280;54349;52.528;19.760;2024-03-02T11:58:20;100071.13;;;24.41;40.21
67501;BME280;54349;52.528;19.760;2024-03-02T12:00:54;100074.66;;;24.41;40.03
67501;BME280;54349;52.528;19.760;2024-03-02T12:03:29;100072.33;;;24.41;40.25
67501;BME280;54349;52.528;19.760;2024-03-02T12:05:59;100068.06;;;24.41;40.20
67501;BME280;54349;52.528;19.760;2024-03-02T12:08:31;100067.34;;;24.43;40.35
67501;BME280;54349;52.528;19.760;2024-03-02T12:11:15;100070.21;;;24.45;40.62
67501;BME280;54349;52.528;19.760;2024-03-02T12:13:56;100068.02;;;24.46;40.57
67501;BME280;54349;52.528;19.760;2024-03-02T12:16:32;100071.39;;;24.49;40.32
67501;BME280;54349;52.528;19.760;2024-03-02T12:19:02;100068.69;;;24.50;40.18
67501;BME280;54349;52.528;19.760;2024-03-02T12:21:32;100069.10;;;24.52;40.14
67501;BME280;54349;52.528;19.760;2024-03-02T12:24:01;100067.56;;;24.53;40.03
67501;BME280;54349;52.528;19.760;2024-03-02T12:26:33;100069.39;;;24.55;40.09
67501;BME280;54349;52.528;19.760;2024-03-02T12:29:04;100063.23;;;24.57;40.28
67501;BME280;54349;52.528;19.760;2024-03-02T12:31:40;100061.52;;;24.59;40.24
67501;BME280;54349;52.528;19.760;2024-03-02T12:34:11;100060.73;;;24.63;40.24
67501;BME280;54349;52.528;19.760;2024-03-02T12:36:49;100060.05;;;24.64;40.30
67501;BME280;54349;52.528;19.760;2024-03-02T12:39:23;100062.19;;;24.69;40.17
67501;BME280;54349;52.528;19.760;2024-03-02T12:41:53;100061.33;;;24.73;39.88
67501;BME280;54349;52.528;19.760;2024-03-02T12:44:28;100061.82;;;24.75;40.04
67501;BME280;54349;52.528;19.760;2024-03-02T12:46:59;100061.17;;;24.79;39.93
67501;BME280;54349;52.528;19.760;2024-03-02T12:49:30;100064.98;;;24.81;39.84
67501;BME280;54349;52.528;19.760;2024-03-02T12:52:05;100059.33;;;24.85;39.88
67501;BME280;54349;52.528;19.760;2024-03-02T12:54:45;100059.75;;;24.88;39.75
67501;BME280;54349;52.528;19.760;2024-03-02T12:57:36;100058.60;;;24.92;39.64
67501;BME280;54349;52.528;19.760;2024-03-02T13:00:19;100055.34;;;24.95;39.37
67501;BME280;54349;52.528;19.760;2024-03-02T13:02:56;100051.89;;;24.97;39.33
67501;BME280;54349;52.528;19.760;2024-03-02T13:05:36;100052.26;;;25.00;38.93
67501;BME280;54349;52.528;19.760;2024-03-02T13:08:13;100049.02;;;25.02;38.68
67501;BME280;54349;52.528;19.760;2024-03-02T13:10:47;100051.16;;;25.03;38.80
67501;BME280;54349;52.528;19.760;2024-03-02T13:13:26;100049.00;;;25.05;38.54
67501;BME280;54349;52.528;19.760;2024-03-02T13:16:00;100051.86;;;25.06;38.63
67501;BME280;54349;52.528;19.760;2024-03-02T13:18:39;100043.13;;;25.08;38.61
67501;BME280;54349;52.528;19.760;2024-03-02T13:21:10;100040.48;;;25.10;38.49